Time;durP1;ratioP1;P1;durP2;ratioP2;P2;SDS_P1;SDS_P2;PMS_P1;PMS_P2;Temp;Humidity;BMP_temperature;BMP_pressure;BME280_temperature;BME280_humidity;BME280_pressure;Samples;Min_cycle;Max_cycle;Signal;HPM_P1;HPM_P2
2022/05/25 00:01:17;;;;;;;0.00;0.00;;;11.20;99.90;;;;;;4994508;28;20204;-60
2022/05/25 00:03:44;;;;;;;0.00;0.00;;;11.20;99.90;;;;;;4994387;28;20201;-60
2022/05/25 00:06:11;;;;;;;0.00;0.00;;;11.20;99.90;;;;;;4994134;28;20669;-61
2022/05/25 00:08:40;;;;;;;0.10;0.10;;;11.20;99.90;;;;;;4993891;28;20232;-60
2022/05/25 00:11:07;;;;;;;0.00;0.00;;;11.10;99.90;;;;;;4994272;28;20208;-61
2022/05/25 00:13:36;;;;;;;0.00;0.00;;;11.10;99.90;;;;;;4993963;28;20206;-61
2022/05/25 00:16:03;;;;;;;0.00;0.00;;;11.10;99.90;;;;;;4993958;28;20675;-61
2022/05/25 00:18:31;;;;;;;0.00;0.00;;;11.00;99.90;;;;;;4994176;28;20555;-61
2022/05/25 00:20:57;;;;;;;0.00;0.00;;;11.00;99.90;;;;;;4993975;28;20196;-61
2022/05/25 00:23:24;;;;;;;0.00;0.00;;;11.00;99.90;;;;;;4993990;28;20226;-61
2022/05/25 00:25:51;;;;;;;0.00;0.00;;;11.00;99.90;;;;;;4993695;28;20619;-60
2022/05/25 00:28:18;;;;;;;0.00;0.00;;;11.00;99.90;;;;;;4993883;28;20260;-61
2022/05/25 00:30:47;;;;;;;0.17;0.17;;;11.00;99.90;;;;;;4993932;28;20213;-60
2022/05/25 00:33:14;;;;;;;0.20;0.20;;;11.00;99.90;;;;;;4993930;28;20652;-60
2022/05/25 00:35:43;;;;;;;0.53;0.53;;;10.90;99.90;;;;;;4993657;28;20668;-61
2022/05/25 00:38:10;;;;;;;0.60;0.60;;;10.90;99.90;;;;;;4993518;28;20608;-61
2022/05/25 00:40:40;;;;;;;0.10;0.10;;;10.80;99.90;;;;;;4996112;28;20214;-61
2022/05/25 00:43:07;;;;;;;0.20;0.20;;;10.60;99.90;;;;;;4994658;28;20202;-61
2022/05/25 00:45:39;;;;;;;0.00;0.00;;;10.70;99.90;;;;;;4993721;28;20206;-61
2022/05/25 00:48:11;;;;;;;0.73;0.50;;;10.70;99.90;;;;;;4993742;28;20207;-61
2022/05/25 00:53:23;;;;;;;0.10;0.10;;;10.60;99.90;;;;;;4993660;28;20182;-60
2022/05/25 00:55:51;;;;;;;0.00;0.00;;;10.60;99.90;;;;;;4993280;28;20570;-61
2022/05/25 00:58:18;;;;;;;0.37;0.37;;;10.50;99.90;;;;;;4993517;28;20201;-61
2022/05/25 01:00:45;;;;;;;0.10;0.10;;;10.40;99.90;;;;;;4993469;28;20194;-60
2022/05/25 01:03:13;;;;;;;0.00;0.00;;;10.40;99.90;;;;;;4993187;28;20575;-60
2022/05/25 01:05:47;;;;;;;0.37;0.37;;;10.50;99.90;;;;;;4993445;28;20216;-59
2022/05/25 01:08:34;;;;;;;0.30;0.30;;;10.60;99.90;;;;;;4992780;28;20344;-60
2022/05/25 01:11:17;;;;;;;0.20;0.20;;;10.70;99.90;;;;;;4992850;28;20648;-61
2022/05/25 01:13:50;;;;;;;0.27;0.27;;;10.80;99.90;;;;;;4993337;28;20200;-61
2022/05/25 01:16:28;;;;;;;0.10;0.10;;;10.80;99.90;;;;;;4993419;28;20271;-60
2022/05/25 01:19:03;;;;;;;0.30;0.30;;;10.80;99.90;;;;;;4993338;28;20536;-61
2022/05/25 01:21:40;;;;;;;0.20;0.20;;;10.70;99.90;;;;;;4993155;28;20178;-60
2022/05/25 01:24:18;;;;;;;0.63;0.63;;;10.60;99.90;;;;;;4993273;28;20672;-60
2022/05/25 01:27:33;;;;;;;0.20;0.20;;;10.70;99.90;;;;;;4992917;28;20186;-61
2022/05/25 01:30:14;;;;;;;0.20;0.20;;;10.80;99.90;;;;;;4991299;28;20205;-61
2022/05/25 01:32:56;;;;;;;0.60;0.60;;;10.80;99.90;;;;;;4993195;28;20186;-59
2022/05/25 01:35:34;;;;;;;1.27;1.27;;;10.90;99.90;;;;;;4993175;28;20269;-61
2022/05/25 01:38:09;;;;;;;1.07;1.03;;;11.00;99.90;;;;;;4992833;28;20639;-60
2022/05/25 01:40:43;;;;;;;0.30;0.30;;;11.10;99.90;;;;;;4993139;28;20210;-60
2022/05/25 01:43:14;;;;;;;0.60;0.60;;;11.20;99.90;;;;;;4993031;28;20199;-60
2022/05/25 01:45:47;;;;;;;0.77;0.77;;;11.20;99.90;;;;;;4993083;28;20188;-61
2022/05/25 01:48:17;;;;;;;0.93;0.93;;;11.10;99.90;;;;;;4992754;28;20209;-60
2022/05/25 01:50:48;;;;;;;0.40;0.40;;;11.10;99.90;;;;;;4992776;28;20203;-61
2022/05/25 01:53:17;;;;;;;0.57;0.57;;;11.10;99.90;;;;;;4996206;28;20187;-61
2022/05/25 01:55:48;;;;;;;1.03;0.57;;;11.00;99.90;;;;;;4993754;28;20207;-61
2022/05/25 01:58:18;;;;;;;0.07;0.07;;;11.10;99.90;;;;;;4993309;28;20235;-60
2022/05/25 02:00:49;;;;;;;0.73;0.70;;;11.10;99.90;;;;;;4992991;28;20207;-60
2022/05/25 02:06:22;;;;;;;0.60;0.60;;;11.20;99.90;;;;;;4993024;28;20193;-59
2022/05/25 02:09:08;;;;;;;0.27;0.27;;;11.20;99.90;;;;;;4992446;28;20591;-60
2022/05/25 02:11:38;;;;;;;0.47;0.47;;;11.20;99.90;;;;;;4992531;28;20202;-61
2022/05/25 02:14:32;;;;;;;1.23;0.73;;;11.10;99.90;;;;;;4992842;28;20192;-60
2022/05/25 02:17:10;;;;;;;0.60;0.60;;;11.00;99.90;;;;;;4992812;28;20214;-61
2022/05/25 02:19:45;;;;;;;0.30;0.30;;;11.00;99.90;;;;;;4992699;28;20191;-60
2022/05/25 02:22:17;;;;;;;0.30;0.30;;;10.90;99.90;;;;;;4996072;28;20245;-59
2022/05/25 02:24:53;;;;;;;0.50;0.40;;;10.90;99.90;;;;;;4996342;28;20182;-60
2022/05/25 02:27:26;;;;;;;0.70;0.70;;;10.90;99.90;;;;;;4996262;28;20547;-60
2022/05/25 02:29:58;;;;;;;0.67;0.67;;;10.70;99.90;;;;;;4996295;28;20237;-61
2022/05/25 02:32:33;;;;;;;0.40;0.40;;;10.70;99.90;;;;;;4995844;28;20219;-61
2022/05/25 02:35:01;;;;;;;0.63;0.40;;;10.60;99.90;;;;;;4996175;28;20205;-60
2022/05/25 02:37:31;;;;;;;0.50;0.50;;;10.50;99.90;;;;;;4996045;28;20259;-60
2022/05/25 02:40:01;;;;;;;0.10;0.10;;;10.50;99.90;;;;;;4996029;28;20249;-60
2022/05/25 02:42:28;;;;;;;0.67;0.63;;;10.40;99.90;;;;;;4995926;28;20203;-60
2022/05/25 02:44:55;;;;;;;0.53;0.53;;;10.50;99.90;;;;;;4995941;28;20202;-60
2022/05/25 02:47:22;;;;;;;0.63;0.63;;;10.40;99.90;;;;;;4995893;28;20196;-60
2022/05/25 02:49:50;;;;;;;4.60;1.33;;;10.40;99.90;;;;;;4995667;28;20290;-61
2022/05/25 02:52:17;;;;;;;0.53;0.53;;;10.50;99.90;;;;;;4995726;28;20211;-61
2022/05/25 02:54:44;;;;;;;0.80;0.80;;;10.50;99.90;;;;;;4995451;28;20253;-60
2022/05/25 02:57:11;;;;;;;0.50;0.50;;;10.50;99.90;;;;;;4995688;28;20594;-61
2022/05/25 02:59:38;;;;;;;0.40;0.33;;;10.40;99.90;;;;;;4995620;28;20200;-60
2022/05/25 03:02:05;;;;;;;2.87;1.13;;;10.50;99.90;;;;;;4995374;28;20256;-59
2022/05/25 03:04:33;;;;;;;1.50;1.30;;;10.50;99.90;;;;;;4995311;28;20292;-60
2022/05/25 03:07:01;;;;;;;0.27;0.27;;;10.50;99.90;;;;;;4995668;28;20207;-59
2022/05/25 03:09:28;;;;;;;0.90;0.90;;;10.50;99.90;;;;;;4995022;28;20250;-60
2022/05/25 03:11:55;;;;;;;0.30;0.30;;;10.40;99.90;;;;;;4995485;28;20194;-61
2022/05/25 03:14:22;;;;;;;1.90;0.90;;;10.40;99.90;;;;;;4995092;28;20667;-60
2022/05/25 03:16:49;;;;;;;0.10;0.10;;;10.30;99.90;;;;;;4995484;28;20213;-60
2022/05/25 03:19:17;;;;;;;0.47;0.47;;;10.30;99.90;;;;;;4998242;28;20526;-61
2022/05/25 03:21:44;;;;;;;0.00;0.00;;;10.10;99.90;;;;;;4996079;28;20709;-59
2022/05/25 03:24:14;;;;;;;0.50;0.43;;;10.00;99.90;;;;;;4995694;28;20194;-60
2022/05/25 03:26:41;;;;;;;0.20;0.20;;;9.90;99.90;;;;;;4995313;28;20683;-60
2022/05/25 03:29:09;;;;;;;0.27;0.27;;;10.00;99.90;;;;;;4995304;28;20228;-60
2022/05/25 03:31:36;;;;;;;5.13;1.13;;;10.10;99.90;;;;;;4994819;28;20198;-60
2022/05/25 03:34:03;;;;;;;0.30;0.30;;;10.10;99.90;;;;;;4994528;28;20296;-60
2022/05/25 03:36:30;;;;;;;0.03;0.03;;;10.10;99.90;;;;;;4995423;28;20210;-66
2022/05/25 03:38:57;;;;;;;0.30;0.30;;;10.10;99.90;;;;;;4996067;28;20205;-61
2022/05/25 03:41:25;;;;;;;0.67;0.67;;;10.10;99.90;;;;;;4995954;28;20190;-61
2022/05/25 03:43:52;;;;;;;0.30;0.30;;;10.00;99.90;;;;;;4995772;28;20205;-60
2022/05/25 03:46:19;;;;;;;0.63;0.63;;;9.90;99.90;;;;;;4995068;28;20723;-60
2022/05/25 03:48:46;;;;;;;0.33;0.33;;;9.90;99.90;;;;;;4994882;28;20597;-60
2022/05/25 03:51:13;;;;;;;0.47;0.47;;;9.80;99.90;;;;;;4994588;28;20210;-60
2022/05/25 03:53:40;;;;;;;0.10;0.10;;;9.80;99.90;;;;;;4994909;28;20250;-61
2022/05/25 03:56:07;;;;;;;0.13;0.13;;;9.90;99.90;;;;;;4994670;28;20206;-61
2022/05/25 03:58:36;;;;;;;1.13;0.77;;;9.80;99.90;;;;;;4994597;28;20208;-60
2022/05/25 04:01:03;;;;;;;1.60;1.50;;;9.80;99.90;;;;;;4994751;28;20194;-60
2022/05/25 04:03:31;;;;;;;0.93;0.93;;;9.90;99.90;;;;;;4994463;28;20617;-59
2022/05/25 04:05:58;;;;;;;2.17;1.70;;;9.90;99.90;;;;;;4995376;28;20202;-59
2022/05/25 04:08:25;;;;;;;2.53;0.80;;;10.00;99.90;;;;;;4993921;28;20761;-60
2022/05/25 04:10:52;;;;;;;1.03;0.93;;;10.20;99.90;;;;;;4994136;28;20209;-60
2022/05/25 04:13:20;;;;;;;1.00;1.00;;;10.10;99.90;;;;;;4994351;28;20288;-59
2022/05/25 04:15:48;;;;;;;1.03;1.03;;;10.20;99.90;;;;;;4994262;28;20206;-59
2022/05/25 04:18:16;;;;;;;1.73;0.97;;;10.30;99.90;;;;;;4993916;28;20198;-60
2022/05/25 04:20:42;;;;;;;0.87;0.87;;;10.20;99.90;;;;;;4994073;28;20202;-60
2022/05/25 04:23:11;;;;;;;2.17;2.00;;;10.30;99.90;;;;;;4993807;28;20644;-59
2022/05/25 04:25:40;;;;;;;1.23;1.20;;;10.50;99.90;;;;;;4994155;28;20301;-60
2022/05/25 04:28:07;;;;;;;1.43;1.17;;;10.50;99.90;;;;;;4993970;28;20215;-60
2022/05/25 04:30:34;;;;;;;2.17;1.77;;;10.60;99.90;;;;;;4993998;28;20300;-60
2022/05/25 04:33:03;;;;;;;1.13;1.03;;;10.60;99.90;;;;;;4994038;28;20209;-60
2022/05/25 04:35:30;;;;;;;1.63;1.50;;;10.60;99.90;;;;;;4994023;28;20206;-60
2022/05/25 04:37:57;;;;;;;0.97;0.83;;;10.70;99.90;;;;;;4994209;28;20598;-60
2022/05/25 04:40:27;;;;;;;0.80;0.80;;;10.70;99.90;;;;;;4995444;28;20206;-60
2022/05/25 04:42:56;;;;;;;3.43;1.27;;;10.80;99.90;;;;;;4993912;28;20196;-60
2022/05/25 04:45:25;;;;;;;5.50;1.93;;;10.80;99.90;;;;;;4994015;28;20530;-60
2022/05/25 04:47:53;;;;;;;2.17;1.60;;;10.90;99.90;;;;;;4993993;28;20220;-60
2022/05/25 04:50:23;;;;;;;5.80;1.43;;;10.90;99.90;;;;;;4994051;28;20232;-60
2022/05/25 04:52:51;;;;;;;0.90;0.90;;;11.00;99.90;;;;;;4994343;28;20544;-63
2022/05/25 04:58:03;;;;;;;1.73;1.53;;;11.20;99.90;;;;;;4993737;28;20591;-60
2022/05/25 05:00:31;;;;;;;1.53;1.43;;;11.20;99.90;;;;;;4993557;28;20199;-59
2022/05/25 05:02:58;;;;;;;1.67;1.57;;;11.30;99.90;;;;;;4993638;28;20198;-59
2022/05/25 05:05:26;;;;;;;2.33;1.50;;;11.40;99.90;;;;;;4993517;28;20298;-59
2022/05/25 05:07:53;;;;;;;2.80;1.30;;;11.50;99.90;;;;;;4993239;28;20232;-59
2022/05/25 05:10:20;;;;;;;6.43;3.73;;;11.60;99.90;;;;;;4993390;28;20204;-60
2022/05/25 05:12:47;;;;;;;1.10;1.10;;;11.90;99.90;;;;;;4993501;28;20219;-60
2022/05/25 05:15:14;;;;;;;1.30;0.87;;;12.20;99.90;;;;;;4993441;28;20193;-60
2022/05/25 05:17:41;;;;;;;1.33;1.23;;;12.30;99.90;;;;;;4993374;28;20215;-60
2022/05/25 05:20:10;;;;;;;1.70;1.57;;;12.70;99.90;;;;;;4993136;28;20201;-60
2022/05/25 05:22:38;;;;;;;1.53;1.43;;;13.30;99.90;;;;;;4993297;28;20245;-60
2022/05/25 05:25:07;;;;;;;1.57;1.47;;;13.60;99.90;;;;;;4993295;28;20204;-60
2022/05/25 05:27:34;;;;;;;3.77;2.10;;;13.50;99.90;;;;;;4993258;28;20205;-60
2022/05/25 05:30:05;;;;;;;0.50;0.50;;;13.60;99.90;;;;;;4992880;28;20705;-60
2022/05/25 05:32:32;;;;;;;4.77;1.80;;;14.00;99.90;;;;;;4992979;28;20197;-60
2022/05/25 05:34:59;;;;;;;2.50;1.00;;;14.10;99.90;;;;;;4993217;28;20205;-60
2022/05/25 05:37:30;;;;;;;0.80;0.80;;;14.20;99.90;;;;;;4993228;28;20536;-61
2022/05/25 05:39:59;;;;;;;3.50;1.77;;;14.30;99.90;;;;;;4993197;28;20174;-60
2022/05/25 05:42:27;;;;;;;1.47;1.37;;;14.30;99.90;;;;;;4993139;28;20209;-60
2022/05/25 05:45:00;;;;;;;3.53;1.30;;;14.30;99.90;;;;;;4993765;28;20193;-61
2022/05/25 05:47:31;;;;;;;1.70;0.80;;;14.20;99.90;;;;;;4993704;28;20190;-61
2022/05/25 05:49:59;;;;;;;1.00;1.00;;;14.40;99.90;;;;;;4994190;28;20241;-61
2022/05/25 05:52:27;;;;;;;7.33;2.97;;;14.50;99.90;;;;;;4994509;28;20557;-62
2022/05/25 05:54:54;;;;;;;1.00;1.00;;;14.40;99.90;;;;;;4995085;28;20202;-62
2022/05/25 05:57:22;;;;;;;1.90;1.47;;;14.60;99.90;;;;;;4997195;28;20204;-61
2022/05/25 05:59:49;;;;;;;1.30;0.93;;;14.70;99.90;;;;;;4997019;28;20216;-61
2022/05/25 06:02:16;;;;;;;1.97;1.50;;;14.70;99.90;;;;;;4997158;28;20209;-61
2022/05/25 06:04:43;;;;;;;1.70;1.30;;;14.70;99.90;;;;;;4996978;28;20550;-59
2022/05/25 06:07:10;;;;;;;3.90;1.40;;;14.70;99.90;;;;;;4996721;28;20199;-61
2022/05/25 06:09:37;;;;;;;2.23;1.30;;;15.00;99.90;;;;;;4996295;28;20252;-61
2022/05/25 06:12:05;;;;;;;1.07;1.07;;;15.00;99.90;;;;;;4996604;28;20603;-62
2022/05/25 06:14:33;;;;;;;1.50;1.13;;;15.00;99.90;;;;;;4996520;28;20209;-60
2022/05/25 06:19:56;;;;;;;1.60;1.50;;;15.40;99.90;;;;;;4955192;29;20198;-61
2022/05/25 06:22:23;;;;;;;1.83;0.80;;;15.40;99.90;;;;;;4955161;29;20668;-61
2022/05/25 06:24:53;;;;;;;1.27;1.17;;;15.20;99.90;;;;;;4955229;29;20199;-61
2022/05/25 06:27:21;;;;;;;1.53;1.43;;;15.50;99.90;;;;;;4955055;29;20227;-61
2022/05/25 06:29:50;;;;;;;3.17;2.10;;;15.40;99.90;;;;;;4955072;29;20220;-61
2022/05/25 06:32:19;;;;;;;1.57;1.40;;;15.70;99.90;;;;;;4955190;29;20215;-61
2022/05/25 06:34:47;;;;;;;1.27;1.13;;;15.80;99.90;;;;;;4955102;29;20215;-61
2022/05/25 06:37:16;;;;;;;6.50;1.20;;;15.60;99.90;;;;;;4954920;29;20344;-62
2022/05/25 06:39:43;;;;;;;1.53;1.43;;;15.80;99.90;;;;;;4954927;29;20568;-63
2022/05/25 06:42:10;;;;;;;1.57;1.47;;;15.80;99.90;;;;;;4954882;29;20217;-62
2022/05/25 06:44:37;;;;;;;1.10;1.00;;;16.30;99.90;;;;;;4954971;29;20215;-62
2022/05/25 06:47:06;;;;;;;1.90;1.70;;;16.10;99.90;;;;;;4954614;29;20210;-63
2022/05/25 06:49:33;;;;;;;1.00;1.00;;;15.90;99.90;;;;;;4954573;29;20229;-62
2022/05/25 06:51:59;;;;;;;1.40;1.30;;;16.30;99.90;;;;;;4954352;29;20219;-62
2022/05/25 06:54:28;;;;;;;12.93;1.77;;;16.50;99.90;;;;;;4980152;28;20576;-63
2022/05/25 06:56:55;;;;;;;3.77;1.27;;;16.40;99.90;;;;;;4995449;28;20254;-62
2022/05/25 06:59:21;;;;;;;2.00;1.17;;;16.40;99.90;;;;;;4995405;28;20219;-62
2022/05/25 07:01:48;;;;;;;1.63;1.50;;;16.10;99.90;;;;;;4995438;28;20287;-61
2022/05/25 07:04:17;;;;;;;1.60;1.03;;;16.20;99.90;;;;;;4997844;28;20252;-61
2022/05/25 07:06:44;;;;;;;1.40;1.30;;;16.30;99.90;;;;;;4995733;28;20573;-62
2022/05/25 07:09:12;;;;;;;0.80;0.47;;;16.40;99.90;;;;;;4995435;28;20715;-62
2022/05/25 07:11:41;;;;;;;1.63;1.33;;;16.30;99.90;;;;;;4995780;28;20213;-63
2022/05/25 07:14:08;;;;;;;0.80;0.80;;;16.50;99.90;;;;;;4996766;28;20219;-63
2022/05/25 07:16:35;;;;;;;0.50;0.50;;;17.00;99.90;;;;;;4996156;28;20204;-62
2022/05/25 07:19:03;;;;;;;2.83;1.07;;;17.50;99.90;;;;;;4995317;28;20208;-62
2022/05/25 07:21:32;;;;;;;0.80;0.77;;;17.20;99.90;;;;;;4995346;28;20305;-62
2022/05/25 07:24:00;;;;;;;1.53;1.40;;;16.90;99.90;;;;;;4995361;28;20217;-62
2022/05/25 07:26:29;;;;;;;0.83;0.83;;;17.20;99.90;;;;;;4995309;28;20208;-62
2022/05/25 07:28:57;;;;;;;0.60;0.60;;;17.50;99.90;;;;;;4995309;28;20212;-62
2022/05/25 07:31:26;;;;;;;0.90;0.90;;;17.80;99.90;;;;;;4995214;28;20217;-62
2022/05/25 07:33:59;;;;;;;0.70;0.70;;;17.60;99.90;;;;;;4995354;28;20193;-62
2022/05/25 07:36:27;;;;;;;1.63;1.20;;;17.70;99.90;;;;;;4995746;28;20232;-62
2022/05/25 07:38:58;;;;;;;3.90;1.10;;;18.00;99.90;;;;;;4995091;28;20198;-62
2022/05/25 07:41:25;;;;;;;0.43;0.43;;;17.60;99.90;;;;;;4995058;28;20212;-62
2022/05/25 07:43:57;;;;;;;0.67;0.67;;;17.70;99.90;;;;;;4994965;28;20213;-62
2022/05/25 07:46:26;;;;;;;0.77;0.77;;;17.50;99.90;;;;;;4995019;28;20269;-62
2022/05/25 07:48:53;;;;;;;2.27;1.53;;;17.70;99.90;;;;;;4994769;28;20198;-61
2022/05/25 07:51:20;;;;;;;1.80;1.03;;;17.80;99.90;;;;;;4994604;28;20217;-63
2022/05/25 07:54:03;;;;;;;0.90;0.90;;;18.10;99.90;;;;;;4994900;28;20193;-62
2022/05/25 07:56:33;;;;;;;1.60;0.60;;;18.00;99.90;;;;;;4995213;28;20554;-66
2022/05/25 07:59:00;;;;;;;2.73;1.13;;;18.10;99.90;;;;;;4994755;28;20186;-61
2022/05/25 08:07:01;;;;;;;0.60;0.60;;;18.30;99.90;;;;;;4994806;28;20221;-63
2022/05/25 08:09:30;;;;;;;0.63;0.60;;;18.30;99.90;;;;;;4994629;28;20699;-61
2022/05/25 08:11:59;;;;;;;0.90;0.87;;;18.40;85.30;;;;;;4994462;28;20203;-62
2022/05/25 08:14:28;;;;;;;0.80;0.80;;;18.70;84.60;;;;;;4994663;28;20205;-62
2022/05/25 08:16:55;;;;;;;0.60;0.60;;;19.20;69.50;;;;;;4994598;28;20308;-62
2022/05/25 08:19:23;;;;;;;0.47;0.47;;;18.90;44.30;;;;;;4993651;28;20200;-62
2022/05/25 08:21:51;;;;;;;1.70;0.97;;;18.50;34.60;;;;;;4993915;28;20206;-62
2022/05/25 08:24:19;;;;;;;2.20;0.77;;;18.20;29.40;;;;;;4994451;28;20608;-62
2022/05/25 08:26:46;;;;;;;0.83;0.83;;;17.90;31.20;;;;;;4994234;28;20206;-62
2022/05/25 08:29:15;;;;;;;3.13;1.10;;;18.20;33.40;;;;;;4994271;28;20204;-62
2022/05/25 08:31:42;;;;;;;0.80;0.80;;;18.40;17.50;;;;;;4994744;28;20221;-62
2022/05/25 08:34:09;;;;;;;6.77;0.60;;;18.60;17.20;;;;;;4994083;28;20533;-62
2022/05/25 08:36:36;;;;;;;1.33;0.70;;;18.80;12.90;;;;;;4994225;28;20197;-63
2022/05/25 08:39:04;;;;;;;4.13;0.83;;;19.30;7.60;;;;;;4993969;28;20202;-62
2022/05/25 08:41:34;;;;;;;2.40;1.30;;;20.00;1.00;;;;;;4994957;28;20671;-63
2022/05/25 08:44:03;;;;;;;1.17;0.87;;;19.30;1.00;;;;;;4995465;28;20221;-63
2022/05/25 08:46:32;;;;;;;0.67;0.67;;;18.40;1.00;;;;;;4994230;28;20208;-62
2022/05/25 08:49:01;;;;;;;1.57;1.47;;;18.00;1.00;;;;;;4993686;28;20208;-63
2022/05/25 08:51:30;;;;;;;0.77;0.60;;;18.50;1.00;;;;;;4993613;28;20210;-62
2022/05/25 08:53:58;;;;;;;0.50;0.40;;;18.50;1.00;;;;;;4993700;28;20229;-61
2022/05/25 08:56:30;;;;;;;2.40;0.77;;;18.00;1.00;;;;;;4993329;28;20698;-62
2022/05/25 08:59:03;;;;;;;2.00;1.00;;;18.10;1.00;;;;;;4993672;28;20255;-63
2022/05/25 09:01:38;;;;;;;0.70;0.50;;;18.50;1.00;;;;;;4993651;28;20186;-62
2022/05/25 09:04:10;;;;;;;0.50;0.50;;;19.30;1.00;;;;;;4993618;28;20246;-62
2022/05/25 09:06:49;;;;;;;4.77;0.73;;;19.20;1.00;;;;;;4993818;28;20636;-63
2022/05/25 09:09:24;;;;;;;0.88;0.88;;;20.00;1.00;;;;;;4993272;28;20268;-62
2022/05/25 09:11:55;;;;;;;0.40;0.40;;;20.10;1.00;;;;;;4993615;28;20658;-63
2022/05/25 09:14:27;;;;;;;0.43;0.43;;;19.90;1.00;;;;;;4993077;28;20668;-61
2022/05/25 09:17:01;;;;;;;6.70;3.53;;;19.70;1.00;;;;;;4993460;28;20185;-62
2022/05/25 09:19:32;;;;;;;0.57;0.57;;;19.40;1.00;;;;;;4993023;28;20191;-62
2022/05/25 09:22:05;;;;;;;2.90;0.63;;;20.00;1.00;;;;;;4993503;28;20183;-63
2022/05/25 09:24:33;;;;;;;0.90;0.90;;;20.20;1.00;;;;;;4994087;28;20193;-62
2022/05/25 09:27:02;;;;;;;3.28;1.52;;;20.20;1.00;;;;;;4993406;28;20198;-62
2022/05/25 09:29:29;;;;;;;3.25;1.35;;;20.70;1.00;;;;;;4993295;28;20198;-62
2022/05/25 09:32:02;;;;;;;0.98;0.52;;;20.30;1.00;;;;;;4996854;28;20233;-62
2022/05/25 09:34:38;;;;;;;0.50;0.50;;;20.30;1.00;;;;;;4997329;28;20195;-62
2022/05/25 09:37:11;;;;;;;0.47;0.47;;;20.60;1.00;;;;;;4997288;28;20188;-63
2022/05/25 09:39:43;;;;;;;0.50;0.50;;;20.90;1.00;;;;;;4997247;28;20189;-62
2022/05/25 09:42:21;;;;;;;0.60;0.60;;;20.90;1.00;;;;;;4997171;28;20194;-62
2022/05/25 09:44:52;;;;;;;0.70;0.70;;;20.40;1.00;;;;;;4997992;28;20180;-62
2022/05/25 09:47:24;;;;;;;13.13;2.50;;;20.50;1.00;;;;;;4997147;28;20204;-62
2022/05/25 09:49:57;;;;;;;0.73;0.73;;;20.40;1.00;;;;;;4996811;28;20190;-62
2022/05/25 09:52:35;;;;;;;0.50;0.50;;;19.90;1.00;;;;;;4997017;28;20549;-63
2022/05/25 09:55:06;;;;;;;1.05;0.40;;;20.40;1.00;;;;;;4996981;28;20236;-62
2022/05/25 09:57:38;;;;;;;0.80;0.80;;;20.70;1.00;;;;;;4997001;28;20200;-63
2022/05/25 10:00:10;;;;;;;0.40;0.40;;;19.60;1.00;;;;;;4997134;28;20195;-62
2022/05/25 10:02:48;;;;;;;0.40;0.40;;;19.70;1.00;;;;;;4999302;28;20646;-63
2022/05/25 10:05:19;;;;;;;2.97;2.73;;;19.50;1.00;;;;;;4997444;28;20197;-61
2022/05/25 10:07:53;;;;;;;0.30;0.30;;;18.50;1.00;;;;;;4997040;28;20197;-62
2022/05/25 10:10:29;;;;;;;0.60;0.60;;;18.70;1.00;;;;;;4997461;28;20202;-62
2022/05/25 10:13:02;;;;;;;0.30;0.30;;;18.60;1.00;;;;;;4996379;28;20194;-62
2022/05/25 10:15:32;;;;;;;0.30;0.30;;;19.00;1.00;;;;;;4996197;28;20843;-61
2022/05/25 10:18:01;;;;;;;0.40;0.40;;;19.40;1.00;;;;;;4996589;28;20186;-62
2022/05/25 10:20:32;;;;;;;1.23;0.40;;;19.50;1.00;;;;;;4996523;28;20197;-62
2022/05/25 10:23:05;;;;;;;0.33;0.33;;;19.70;1.00;;;;;;4996536;28;20187;-62
2022/05/25 10:25:37;;;;;;;0.40;0.40;;;19.90;1.00;;;;;;4996521;28;20201;-62
2022/05/25 10:28:10;;;;;;;47.33;3.33;;;19.30;1.00;;;;;;4996373;28;20237;-62
2022/05/25 10:39:20;;;;;;;3.72;0.45;;;20.30;1.00;;;;;;4996292;28;20195;-62
2022/05/25 10:42:00;;;;;;;0.80;0.80;;;19.20;1.00;;;;;;4995748;28;20281;-61
2022/05/25 10:44:32;;;;;;;0.20;0.20;;;20.30;1.00;;;;;;4996308;28;20180;-63
2022/05/25 10:46:59;;;;;;;0.68;0.68;;;21.00;1.00;;;;;;4995974;28;20190;-62
2022/05/25 10:49:36;;;;;;;0.73;0.55;;;21.00;1.00;;;;;;4996352;28;20197;-62
2022/05/25 10:52:08;;;;;;;0.50;0.50;;;21.60;1.00;;;;;;4995794;28;20217;-62
2022/05/25 10:54:52;;;;;;;0.43;0.35;;;21.60;1.00;;;;;;4995989;28;20186;-62
2022/05/25 10:57:58;;;;;;;0.20;0.20;;;20.60;1.00;;;;;;4995972;28;20197;-62
2022/05/25 11:00:36;;;;;;;1.77;0.60;;;20.40;1.00;;;;;;4993874;28;20673;-61
2022/05/25 11:03:36;;;;;;;1.65;0.57;;;19.70;1.00;;;;;;4995697;28;20200;-61
2022/05/25 11:06:18;;;;;;;0.20;0.20;;;20.70;1.00;;;;;;4993206;28;20230;-62
2022/05/25 11:08:54;;;;;;;0.30;0.30;;;21.20;1.00;;;;;;4995584;28;20603;-62
2022/05/25 11:11:28;;;;;;;0.60;0.60;;;19.80;1.00;;;;;;4995865;28;20210;-62
2022/05/25 11:14:07;;;;;;;0.40;0.40;;;18.90;1.00;;;;;;4995637;28;20545;-65
2022/05/25 11:16:44;;;;;;;1.03;0.40;;;18.70;1.00;;;;;;4996063;28;20240;-62
2022/05/25 11:19:45;;;;;;;1.00;0.90;;;18.70;1.00;;;;;;4995082;28;20190;-62
2022/05/25 11:22:30;;;;;;;0.40;0.40;;;19.20;1.00;;;;;;4993606;28;20301;-62
2022/05/25 11:25:18;;;;;;;0.30;0.30;;;20.50;1.00;;;;;;4995330;28;20590;-62
2022/05/25 11:27:58;;;;;;;2.10;0.68;;;20.20;1.00;;;;;;4995598;28;20203;-62
2022/05/25 11:30:31;;;;;;;2.83;2.37;;;20.00;1.00;;;;;;4995172;28;20300;-62
2022/05/25 11:33:19;;;;;;;2.27;1.77;;;20.50;1.00;;;;;;4995116;28;20547;-62
2022/05/25 11:35:57;;;;;;;1.95;1.17;;;19.60;1.00;;;;;;4995392;28;20186;-62
2022/05/25 11:38:43;;;;;;;9.50;6.90;;;20.10;1.00;;;;;;4994667;28;20627;-62
2022/05/25 11:41:31;;;;;;;3.90;3.23;;;19.30;1.00;;;;;;4995046;28;20197;-62
2022/05/25 11:44:36;;;;;;;2.10;2.00;;;19.00;1.00;;;;;;4994772;28;20181;-62
2022/05/25 11:47:11;;;;;;;0.60;0.60;;;19.90;1.00;;;;;;4995000;28;20206;-62
2022/05/25 11:50:03;;;;;;;0.40;0.40;;;20.80;1.00;;;;;;4994420;28;20192;-62
2022/05/25 11:52:59;;;;;;;0.88;0.88;;;20.60;1.00;;;;;;4993927;28;20218;-61
2022/05/25 11:55:33;;;;;;;0.73;0.73;;;19.80;1.00;;;;;;4985936;28;20216;-62
2022/05/25 11:58:12;;;;;;;3.53;1.75;;;20.10;1.00;;;;;;4994776;28;20209;-62
2022/05/25 12:00:49;;;;;;;2.55;1.65;;;21.40;1.00;;;;;;4994247;28;20192;-61
2022/05/25 12:03:46;;;;;;;4.10;1.92;;;20.00;1.00;;;;;;4994534;28;20198;-62
2022/05/25 12:06:49;;;;;;;1.58;1.48;;;20.10;1.00;;;;;;4994237;28;20228;-61
2022/05/25 12:09:28;;;;;;;0.75;0.75;;;21.10;1.00;;;;;;4991731;28;20237;-62
2022/05/25 12:12:04;;;;;;;2.17;1.50;;;21.90;1.00;;;;;;4994065;28;20205;-63
2022/05/25 12:14:56;;;;;;;0.40;0.40;;;22.00;1.00;;;;;;4994263;28;20181;-62
2022/05/25 12:17:29;;;;;;;1.73;1.63;;;21.60;1.00;;;;;;4994118;28;20206;-62
2022/05/25 12:20:00;;;;;;;0.88;0.88;;;21.40;1.00;;;;;;4993986;28;20192;-62
2022/05/25 12:22:31;;;;;;;1.88;1.52;;;21.00;1.00;;;;;;4994129;28;20178;-62
2022/05/25 12:25:05;;;;;;;1.27;1.17;;;21.40;1.00;;;;;;4994335;28;20190;-63
2022/05/25 12:27:40;;;;;;;2.13;0.95;;;21.10;1.00;;;;;;4994309;28;20186;-62
2022/05/25 12:30:11;;;;;;;1.00;1.00;;;20.60;1.00;;;;;;4994171;28;20204;-62
2022/05/25 12:32:40;;;;;;;1.13;0.70;;;20.90;1.00;;;;;;4994449;28;20229;-62
2022/05/25 12:35:09;;;;;;;0.20;0.20;;;20.40;1.00;;;;;;4994441;28;20218;-62
2022/05/25 12:37:41;;;;;;;0.75;0.75;;;20.30;1.00;;;;;;4995133;28;20197;-63
2022/05/25 12:40:09;;;;;;;0.45;0.45;;;20.50;1.00;;;;;;4994062;28;20197;-62
2022/05/25 12:42:42;;;;;;;2.88;0.77;;;20.70;1.00;;;;;;4993986;28;20242;-62
2022/05/25 12:48:40;;;;;;;3.03;0.95;;;20.10;1.00;;;;;;4992356;28;20684;-62
2022/05/25 12:51:09;;;;;;;1.00;0.73;;;19.80;1.00;;;;;;4992958;28;20716;-62
2022/05/25 12:53:38;;;;;;;1.58;1.33;;;19.90;1.00;;;;;;4992856;28;20204;-62
2022/05/25 12:56:10;;;;;;;10.60;1.42;;;20.70;1.00;;;;;;4993996;28;20201;-63
2022/05/25 12:58:54;;;;;;;0.55;0.55;;;21.30;1.00;;;;;;4992843;28;20190;-62
2022/05/25 13:01:43;;;;;;;1.02;1.00;;;21.50;1.00;;;;;;4993785;28;20234;-62
2022/05/25 13:04:17;;;;;;;0.65;0.65;;;20.20;1.00;;;;;;4990852;28;20317;-61
2022/05/25 13:07:23;;;;;;;1.00;0.80;;;19.80;1.00;;;;;;4994453;28;20190;-63
2022/05/25 13:09:51;;;;;;;0.70;0.60;;;19.80;1.00;;;;;;4994109;28;20237;-62
2022/05/25 13:12:46;;;;;;;1.30;1.17;;;19.80;1.00;;;;;;4994295;28;20232;-62
2022/05/25 13:15:40;;;;;;;0.80;0.80;;;19.90;1.00;;;;;;4993727;28;20559;-63
2022/05/25 13:18:09;;;;;;;3.40;2.05;;;21.10;1.00;;;;;;4986957;28;20225;-63
2022/05/25 13:20:59;;;;;;;5.18;2.47;;;22.00;1.00;;;;;;4992562;28;20721;-61
2022/05/25 13:24:18;;;;;;;5.70;1.20;;;22.10;1.00;;;;;;4993286;28;20204;-62
2022/05/25 13:27:11;;;;;;;1.27;1.13;;;22.00;1.00;;;;;;4951635;29;20206;-63
2022/05/25 13:29:57;;;;;;;1.95;1.45;;;22.30;1.00;;;;;;4926792;29;20673;-62
2022/05/25 13:32:36;;;;;;;2.65;1.02;;;22.00;1.00;;;;;;4951192;29;20718;-62
2022/05/25 13:35:24;;;;;;;2.28;1.23;;;22.00;1.00;;;;;;4951861;29;20221;-62
2022/05/25 13:37:58;;;;;;;1.95;0.52;;;21.80;1.00;;;;;;4950015;29;20207;-62
2022/05/25 13:40:31;;;;;;;1.98;1.77;;;21.00;1.00;;;;;;4952529;29;20202;-63
2022/05/25 13:42:59;;;;;;;1.38;1.30;;;20.50;1.00;;;;;;4952207;29;20231;-63
2022/05/25 13:45:30;;;;;;;2.00;0.77;;;20.30;1.00;;;;;;4952512;29;20213;-62